首页
METAR-TAF:

METAR-TAF

机场 :

萨格勒布机场

萨格勒布, 克罗地亚

纬度: 45-44N, 经度: 016-04E, 海拔: 106米

当前天气观测

该预报发布于26分钟前的14:00 UTC
风速2节,风向多变
温度 3°C
湿度 87%
气压 1020 hPa
能見度: 4000
阴天层高于600英尺
轻雾

METAR: LDZA 261400Z VRB02KT 4000 BR OVC006 03/01 Q1020 TEMPO 6000 NSW

时间: 15:26 (14:26 UTC)

预报

该预报发布于3小时和1分钟前的11:25 UTC
预报有效从26日的 12点(UTC)到 27日的 12点(UTC)
风速2节,风向多变
能見度: 3000
多云层高于600英尺
轻雾
几率 30%
从 26日的 12点(UTC)到 26日的 16点(UTC)
能見度: 6000
散云层高于1500英尺
成为
从 26日的 16点(UTC)到 26日的 18点(UTC)
能見度: 0200
层高于100英尺
成为
从 27日的 09点(UTC)到 27日的 11点(UTC)
能見度: 3000
阴天层高于300英尺
轻雾

TAF: LDZA 261125Z 2612/2712 VRB02KT 3000 BR BKN006 TX03/2613Z TN00/2705Z PROB30 2612/2616 6000 NSW SCT015 BECMG 2616/2618 0200 FG VV001 BECMG 2709/2711 3000 BR OVC003

超过4000个机场的气象观测和天气预报(METAR&TAF报告)。

可查询的气象台以黄色和红色小点在地图上表示。

将鼠标移到小点上方,可查看气象台名称。

然后点击查看天气观测和预报。

如需切换地图:点击带黑十字的绿色按钮放大地图;点击带横线的绿色按钮缩小地图;或者点击绿色箭头查看邻近地区的地图。


METAR-TAF: